createdAt,value
2019-02-26T00:02:26.072Z,8.13
2019-02-26T00:05:41.386Z,10.13
2019-02-26T00:08:58.217Z,10.13
2019-02-26T00:12:10.994Z,7.73
2019-02-26T00:15:24.937Z,7.83
2019-02-26T00:18:38.773Z,7.87
2019-02-26T00:21:54.332Z,7.50
2019-02-26T00:25:10.445Z,7.23
2019-02-26T00:28:24.340Z,7.77
2019-02-26T00:31:38.153Z,7.87
2019-02-26T00:34:53.223Z,7.73
2019-02-26T00:38:08.961Z,7.23
2019-02-26T00:41:24.750Z,7.63
2019-02-26T00:44:39.199Z,7.40
2019-02-26T00:47:53.041Z,7.77
2019-02-26T00:51:06.859Z,7.73
2019-02-26T00:54:24.234Z,7.50
2019-02-26T00:57:38.367Z,7.63
2019-02-26T01:00:52.293Z,7.83
2019-02-26T01:04:06.156Z,7.73
2019-02-26T01:07:21.455Z,7.37
2019-02-26T01:10:37.536Z,7.83
2019-02-26T01:13:52.833Z,7.13
2019-02-26T01:17:08.208Z,7.33
2019-02-26T01:20:26.904Z,7.57
2019-02-26T01:23:38.773Z,8.00
2019-02-26T01:26:52.619Z,7.97
2019-02-26T01:30:12.535Z,7.90
2019-02-26T01:33:30.258Z,7.23
2019-02-26T01:36:46.787Z,7.63
2019-02-26T01:40:00.565Z,7.70
2019-02-26T01:43:14.377Z,7.40
2019-02-26T01:46:29.918Z,7.37
2019-02-26T01:49:44.641Z,7.60
2019-02-26T01:53:01.068Z,7.40
2019-02-26T01:56:15.035Z,7.90
2019-02-26T01:59:28.879Z,7.33
2019-02-26T02:02:42.841Z,7.20
2019-02-26T02:05:56.658Z,7.73
2019-02-26T02:09:13.438Z,7.13
2019-02-26T02:12:29.546Z,7.80
2019-02-26T02:15:42.714Z,7.40
2019-02-26T02:18:59.878Z,7.87
2019-02-26T02:22:14.665Z,7.47
2019-02-26T02:25:33.182Z,7.30
2019-02-26T02:28:45.014Z,7.27
2019-02-26T02:32:02.237Z,7.00
2019-02-26T02:35:17.873Z,7.13
2019-02-26T02:38:30.335Z,7.67
2019-02-26T02:41:45.449Z,6.77
2019-02-26T02:44:59.910Z,7.53
2019-02-26T02:48:14.239Z,6.70
2019-02-26T02:51:31.154Z,6.60
2019-02-26T02:54:47.026Z,6.87
2019-02-26T02:58:00.538Z,7.30
2019-02-26T03:01:16.637Z,7.07
2019-02-26T03:04:33.910Z,7.83
2019-02-26T03:07:50.442Z,7.40
2019-02-26T03:11:02.383Z,6.93
2019-02-26T03:14:18.534Z,6.73
2019-02-26T03:17:31.979Z,7.13
2019-02-26T03:20:45.802Z,7.03
2019-02-26T03:24:00.854Z,7.27
2019-02-26T03:27:15.381Z,6.93
2019-02-26T03:30:37.053Z,6.93
2019-02-26T03:33:45.092Z,6.73
2019-02-26T03:36:59.940Z,6.57
2019-02-26T03:40:14.747Z,7.23
2019-02-26T03:43:30.878Z,6.80
2019-02-26T03:46:44.296Z,7.03
2019-02-26T03:49:58.142Z,7.27
2019-02-26T03:53:11.967Z,7.07
2019-02-26T03:56:25.916Z,7.60
2019-02-26T03:59:39.899Z,7.70
2019-02-26T04:02:53.815Z,7.07
2019-02-26T04:06:09.995Z,6.83
2019-02-26T04:09:23.423Z,7.20
2019-02-26T04:12:41.942Z,7.60
2019-02-26T04:15:56.237Z,6.47
2019-02-26T04:19:09.446Z,6.73
2019-02-26T04:22:29.511Z,6.70
2019-02-26T04:25:52.097Z,6.23
2019-02-26T04:29:12.527Z,7.50
2019-02-26T04:32:35.589Z,6.77
2019-02-26T04:35:58.271Z,6.90
2019-02-26T04:39:30.927Z,7.30
2019-02-26T04:43:12.910Z,7.50
2019-02-26T04:46:31.638Z,6.87
2019-02-26T04:49:46.551Z,7.10
2019-02-26T04:53:04.438Z,7.17
2019-02-26T04:56:16.626Z,7.57
2019-02-26T04:59:32.412Z,7.10
2019-02-26T05:02:47.286Z,7.40
2019-02-26T05:06:03.092Z,7.33
2019-02-26T05:09:17.666Z,7.00
2019-02-26T05:12:33.991Z,7.47
2019-02-26T05:15:47.243Z,7.70
2019-02-26T05:19:02.982Z,7.90
2019-02-26T05:22:16.828Z,7.60
2019-02-26T05:25:31.481Z,7.50
2019-02-26T05:28:48.961Z,7.80
2019-02-26T05:32:04.232Z,8.60
2019-02-26T05:35:20.327Z,8.57
2019-02-26T05:38:34.883Z,8.40
2019-02-26T05:41:52.300Z,7.93
2019-02-26T05:45:06.880Z,7.30
2019-02-26T05:48:23.051Z,7.50
2019-02-26T05:51:38.222Z,7.10
2019-02-26T05:54:52.755Z,7.50
2019-02-26T05:58:07.443Z,7.10
2019-02-26T06:01:25.870Z,7.67
2019-02-26T06:04:41.097Z,7.03
2019-02-26T06:07:55.998Z,8.00
2019-02-26T06:11:09.848Z,7.33
2019-02-26T06:14:25.466Z,7.77
2019-02-26T06:17:43.071Z,7.27
2019-02-26T06:20:55.922Z,8.07
2019-02-26T06:24:10.958Z,8.00
2019-02-26T06:27:27.276Z,8.60
2019-02-26T06:30:40.615Z,8.33
2019-02-26T06:33:54.429Z,8.23
2019-02-26T06:37:16.681Z,8.77
2019-02-26T06:40:34.448Z,8.77
2019-02-26T06:43:48.371Z,9.07
2019-02-26T06:47:04.587Z,7.77
2019-02-26T06:50:19.009Z,8.43
2019-02-26T06:53:33.279Z,7.70
2019-02-26T06:56:49.071Z,8.27
2019-02-26T07:00:06.767Z,8.90
2019-02-26T07:03:24.202Z,10.80
2019-02-26T07:06:38.003Z,8.90
2019-02-26T07:09:52.007Z,8.47
2019-02-26T07:13:07.441Z,8.80
2019-02-26T07:16:21.616Z,9.73
2019-02-26T07:19:36.315Z,9.53
2019-02-26T07:22:51.668Z,9.40
2019-02-26T07:26:07.835Z,9.93
2019-02-26T07:29:21.695Z,9.03
2019-02-26T07:32:36.062Z,9.17
2019-02-26T07:35:52.269Z,8.57
2019-02-26T07:39:07.244Z,9.10
2019-02-26T07:42:21.100Z,8.83
2019-02-26T07:45:34.939Z,8.50
2019-02-26T07:48:53.530Z,9.07
2019-02-26T07:52:06.854Z,8.43
2019-02-26T07:55:20.301Z,9.10
2019-02-26T07:58:36.072Z,9.07
2019-02-26T08:01:49.855Z,9.87
2019-02-26T08:05:04.868Z,9.13
2019-02-26T08:08:20.915Z,8.17
2019-02-26T08:11:36.257Z,9.10
2019-02-26T08:14:50.264Z,8.73
2019-02-26T08:18:05.313Z,8.27
2019-02-26T08:21:21.735Z,8.57
2019-02-26T08:24:35.099Z,8.90
2019-02-26T08:27:52.156Z,8.40
2019-02-26T08:31:06.706Z,9.13
2019-02-26T08:34:20.682Z,8.10
2019-02-26T08:37:34.487Z,9.10
2019-02-26T08:40:48.443Z,8.10
2019-02-26T08:44:02.392Z,7.90
2019-02-26T08:47:18.592Z,8.50
2019-02-26T08:50:33.402Z,8.53
2019-02-26T08:53:49.505Z,8.30
2019-02-26T08:57:03.792Z,7.33
2019-02-26T09:00:20.144Z,8.33
2019-02-26T09:03:40.364Z,7.83
2019-02-26T09:06:51.859Z,8.30
2019-02-26T09:10:10.676Z,8.13
2019-02-26T09:13:25.534Z,7.97
2019-02-26T09:16:39.652Z,8.70
2019-02-26T09:20:06.266Z,8.53
2019-02-26T09:23:09.324Z,8.00
2019-02-26T09:26:23.220Z,7.97
2019-02-26T09:29:41.209Z,8.70
2019-02-26T09:32:54.711Z,7.87
2019-02-26T09:36:10.750Z,8.57
2019-02-26T09:39:24.332Z,8.53
2019-02-26T09:42:38.185Z,8.17
2019-02-26T09:45:52.905Z,7.47
2019-02-26T09:49:11.941Z,8.30
2019-02-26T09:52:25.684Z,8.00
2019-02-26T09:55:38.451Z,7.60
2019-02-26T09:58:52.408Z,7.80
2019-02-26T10:02:06.291Z,7.63
2019-02-26T10:05:20.113Z,8.10
2019-02-26T10:08:33.959Z,7.40
2019-02-26T10:11:49.240Z,7.33
2019-02-26T10:15:06.834Z,7.50
2019-02-26T10:18:21.498Z,7.33
2019-02-26T10:21:37.586Z,7.33
2019-02-26T10:24:52.194Z,7.15
2019-02-26T10:28:08.795Z,6.95
2019-02-26T10:31:25.067Z,7.10
2019-02-26T10:34:37.605Z,6.70
2019-02-26T10:37:57.069Z,6.20
2019-02-26T10:41:11.900Z,6.65
2019-02-26T10:44:25.790Z,6.10
2019-02-26T10:47:39.628Z,5.72
2019-02-26T10:50:53.470Z,5.45
2019-02-26T10:54:09.650Z,5.70
2019-02-26T10:57:23.045Z,5.15
2019-02-26T11:00:38.011Z,5.53
2019-02-26T11:03:55.079Z,5.33
2019-02-26T11:07:09.298Z,5.45
2019-02-26T11:10:25.232Z,5.37
2019-02-26T11:13:40.719Z,5.53
2019-02-26T11:16:55.238Z,5.55
2019-02-26T11:20:12.177Z,5.58
2019-02-26T11:23:30.961Z,4.97
2019-02-26T11:26:43.873Z,4.97
2019-02-26T11:29:59.503Z,5.20
2019-02-26T11:33:15.467Z,5.40
2019-02-26T11:36:31.283Z,5.67
2019-02-26T11:39:44.814Z,5.00
2019-02-26T11:43:00.214Z,4.67
2019-02-26T11:46:14.409Z,4.30
2019-02-26T11:49:28.262Z,4.95
2019-02-26T11:52:42.162Z,4.87
2019-02-26T11:55:56.931Z,5.60
2019-02-26T11:59:14.348Z,3.42
2019-02-26T12:02:33.409Z,2.30
2019-02-26T12:05:43.620Z,3.10
2019-02-26T12:08:57.459Z,3.30
2019-02-26T12:12:11.657Z,3.30
2019-02-26T12:15:27.117Z,3.77
2019-02-26T12:18:44.346Z,4.00
2019-02-26T12:22:01.311Z,4.25
2019-02-26T12:25:15.422Z,4.15
2019-02-26T12:28:32.472Z,3.92
2019-02-26T12:31:45.022Z,4.47
2019-02-26T12:34:58.894Z,4.50
2019-02-26T12:38:20.591Z,4.60
2019-02-26T12:41:28.460Z,4.65
2019-02-26T12:44:45.241Z,4.95
2019-02-26T12:47:58.234Z,4.85
2019-02-26T12:51:12.462Z,4.67
2019-02-26T12:54:26.897Z,4.87
2019-02-26T12:57:43.203Z,4.95
2019-02-26T13:00:58.485Z,5.28
2019-02-26T13:04:13.993Z,5.75
2019-02-26T13:07:28.134Z,5.90
2019-02-26T13:10:46.280Z,5.55
2019-02-26T13:13:57.904Z,5.35
2019-02-26T13:17:13.881Z,5.60
2019-02-26T13:20:27.707Z,5.87
2019-02-26T13:23:41.538Z,5.78
2019-02-26T13:26:59.269Z,5.33
2019-02-26T13:30:17.696Z,5.47
2019-02-26T13:33:36.960Z,5.45
2019-02-26T13:36:52.653Z,5.12
2019-02-26T13:40:06.874Z,4.65
2019-02-26T13:43:20.739Z,4.60
2019-02-26T13:46:34.914Z,5.10
2019-02-26T13:49:49.048Z,5.47
2019-02-26T13:53:03.501Z,5.35
2019-02-26T13:56:17.469Z,4.95
2019-02-26T13:59:31.317Z,4.60
2019-02-26T14:02:45.258Z,5.45
2019-02-26T14:05:59.122Z,5.12
2019-02-26T14:09:12.982Z,5.05
2019-02-26T14:12:26.817Z,5.42
2019-02-26T14:15:40.796Z,4.60
2019-02-26T14:18:54.655Z,4.65
2019-02-26T14:22:08.482Z,4.97
2019-02-26T14:25:22.768Z,5.42
2019-02-26T14:28:36.646Z,5.65
2019-02-26T14:31:50.511Z,5.80
2019-02-26T14:35:07.591Z,6.87
2019-02-26T14:38:21.526Z,7.70
2019-02-26T14:41:35.593Z,7.85
2019-02-26T14:44:49.454Z,7.55
2019-02-26T14:48:03.415Z,7.72
2019-02-26T14:51:17.815Z,7.15
2019-02-26T14:54:32.046Z,6.92
2019-02-26T14:57:45.972Z,7.30
2019-02-26T15:01:03.819Z,6.80
2019-02-26T15:04:17.909Z,6.85
2019-02-26T15:07:31.854Z,6.78
2019-02-26T15:10:45.826Z,7.00
2019-02-26T15:13:59.648Z,7.30
2019-02-26T15:17:13.595Z,6.75
2019-02-26T15:20:27.938Z,6.45
2019-02-26T15:23:41.787Z,5.87
2019-02-26T15:26:55.640Z,6.00
2019-02-26T15:30:12.811Z,5.92
2019-02-26T15:33:26.673Z,5.97
2019-02-26T15:36:40.801Z,5.50
2019-02-26T15:39:54.632Z,5.60
2019-02-26T15:43:08.504Z,5.67
2019-02-26T15:46:22.360Z,5.35
2019-02-26T15:49:37.773Z,4.75
2019-02-26T15:52:53.023Z,4.80
2019-02-26T15:56:07.656Z,4.97
2019-02-26T15:59:21.515Z,5.05
2019-02-26T16:02:36.824Z,5.97
2019-02-26T16:05:50.765Z,5.42
2019-02-26T16:09:05.239Z,4.78
2019-02-26T16:12:19.104Z,4.20
2019-02-26T16:15:34.256Z,4.25
2019-02-26T16:18:48.138Z,4.33
2019-02-26T16:22:01.971Z,4.97
2019-02-26T16:25:15.916Z,4.58
2019-02-26T16:28:29.779Z,4.53
2019-02-26T16:31:43.657Z,4.45
2019-02-26T16:34:57.525Z,4.22
2019-02-26T16:38:14.146Z,4.10
2019-02-26T16:41:27.867Z,4.60
2019-02-26T16:44:41.832Z,4.08
2019-02-26T16:47:57.299Z,4.55
2019-02-26T16:51:11.559Z,4.42
2019-02-26T16:54:26.053Z,4.60
2019-02-26T16:57:40.003Z,4.37
2019-02-26T17:00:53.988Z,5.00
2019-02-26T17:04:08.849Z,5.10
2019-02-26T17:07:22.974Z,4.60
2019-02-26T17:10:37.435Z,5.10
2019-02-26T17:13:51.381Z,4.95
2019-02-26T17:17:05.444Z,5.05
2019-02-26T17:20:19.581Z,6.70
2019-02-26T17:23:35.202Z,10.10
2019-02-26T17:26:49.681Z,8.40
2019-02-26T17:30:07.395Z,8.60
2019-02-26T17:33:21.374Z,7.97
2019-02-26T17:36:35.939Z,7.37
2019-02-26T17:39:49.971Z,7.40
2019-02-26T17:43:04.301Z,6.55
2019-02-26T17:46:18.279Z,6.85
2019-02-26T17:49:33.680Z,6.75
2019-02-26T17:52:48.046Z,6.67
2019-02-26T17:56:01.987Z,6.37
2019-02-26T17:59:16.863Z,6.87
2019-02-26T18:02:31.540Z,7.00
2019-02-26T18:05:51.233Z,7.30
2019-02-26T18:09:01.276Z,7.60
2019-02-26T18:12:15.102Z,7.20
2019-02-26T18:15:29.072Z,6.72
2019-02-26T18:18:43.044Z,6.73
2019-02-26T18:21:56.897Z,6.10
2019-02-26T18:25:13.583Z,6.87
2019-02-26T18:28:27.573Z,7.33
2019-02-26T18:31:41.592Z,6.40
2019-02-26T18:34:55.431Z,6.67
2019-02-26T18:38:09.371Z,7.33
2019-02-26T18:41:23.336Z,7.03
2019-02-26T18:44:37.201Z,7.10
2019-02-26T18:47:51.164Z,6.80
2019-02-26T18:51:05.786Z,7.20
2019-02-26T18:54:20.304Z,5.87
2019-02-26T18:57:35.239Z,6.33
2019-02-26T19:00:49.135Z,6.58
2019-02-26T19:04:03.176Z,6.80
2019-02-26T19:07:17.038Z,6.50
2019-02-26T19:10:31.114Z,6.83
2019-02-26T19:13:44.958Z,7.03
2019-02-26T19:16:58.862Z,7.23
2019-02-26T19:20:23.180Z,7.47
2019-02-26T19:23:37.156Z,7.70
2019-02-26T19:26:51.160Z,7.60
2019-02-26T19:30:11.005Z,7.30
2019-02-26T19:33:25.164Z,7.50
2019-02-26T19:36:39.069Z,7.17
2019-02-26T19:39:52.992Z,7.30
2019-02-26T19:43:09.654Z,7.50
2019-02-26T19:46:23.625Z,7.83
2019-02-26T19:49:39.782Z,7.30
2019-02-26T19:52:56.952Z,7.10
2019-02-26T19:56:09.270Z,7.80
2019-02-26T19:59:23.201Z,7.20
2019-02-26T20:02:37.087Z,7.63
2019-02-26T20:05:51.167Z,7.87
2019-02-26T20:09:06.462Z,8.77
2019-02-26T20:12:20.570Z,9.13
2019-02-26T20:15:34.420Z,9.00
2019-02-26T20:18:48.276Z,9.00
2019-02-26T20:22:02.249Z,9.23
2019-02-26T20:25:18.084Z,9.03
2019-02-26T20:28:35.232Z,9.77
2019-02-26T20:31:47.972Z,9.40
2019-02-26T20:35:02.820Z,9.03
2019-02-26T20:38:16.685Z,9.30
2019-02-26T20:41:30.550Z,8.50
2019-02-26T20:44:45.426Z,8.33
2019-02-26T20:48:03.845Z,8.50
2019-02-26T20:51:18.641Z,8.20
2019-02-26T20:54:32.829Z,8.33
2019-02-26T20:57:47.092Z,8.33
2019-02-26T21:01:00.978Z,8.57
2019-02-26T21:04:14.958Z,8.13
2019-02-26T21:07:28.814Z,8.60
2019-02-26T21:10:45.906Z,7.77
2019-02-26T21:14:01.364Z,8.27
2019-02-26T21:17:15.225Z,8.77
2019-02-26T21:20:29.190Z,9.57
2019-02-26T21:23:43.052Z,8.80
2019-02-26T21:26:57.037Z,9.30
2019-02-26T21:30:16.649Z,8.70
2019-02-26T21:33:31.323Z,9.23
2019-02-26T21:36:45.713Z,8.27
2019-02-26T21:39:59.541Z,8.63
2019-02-26T21:43:16.303Z,8.57
2019-02-26T21:46:30.153Z,8.67
2019-02-26T21:49:43.979Z,8.40
2019-02-26T21:52:59.656Z,8.97
2019-02-26T21:56:15.458Z,8.60
2019-02-26T21:59:32.596Z,9.00
2019-02-26T22:02:45.292Z,9.23
2019-02-26T22:06:05.344Z,9.10
2019-02-26T22:09:14.960Z,8.93
2019-02-26T22:12:28.848Z,9.53
2019-02-26T22:15:44.677Z,10.33
2019-02-26T22:18:58.461Z,10.27
2019-02-26T22:22:12.426Z,10.93
2019-02-26T22:25:26.281Z,10.93
2019-02-26T22:28:42.107Z,10.30
2019-02-26T22:31:55.941Z,11.17
2019-02-26T22:35:10.015Z,10.20
2019-02-26T22:38:23.864Z,11.33
2019-02-26T22:41:37.731Z,13.17
2019-02-26T22:44:54.639Z,16.57
2019-02-26T22:48:08.692Z,17.90
2019-02-26T22:51:22.698Z,17.40
2019-02-26T22:54:36.577Z,15.37
2019-02-26T22:57:50.450Z,15.73
2019-02-26T23:01:30.566Z,15.20
2019-02-26T23:04:41.171Z,15.47
2019-02-26T23:07:55.316Z,13.50
2019-02-26T23:11:10.441Z,12.40
2019-02-26T23:14:24.884Z,11.63
2019-02-26T23:17:39.337Z,10.87
2019-02-26T23:20:53.212Z,9.33
2019-02-26T23:24:07.161Z,9.93
2019-02-26T23:27:20.973Z,9.70
2019-02-26T23:30:34.867Z,9.50
2019-02-26T23:33:49.123Z,9.90
2019-02-26T23:37:04.568Z,10.00
2019-02-26T23:40:18.529Z,9.73
2019-02-26T23:43:32.443Z,9.43
2019-02-26T23:46:46.388Z,9.43
2019-02-26T23:50:00.289Z,8.87
2019-02-26T23:53:14.151Z,9.33
2019-02-26T23:56:28.009Z,9.03
2019-02-26T23:59:41.866Z,8.07
